createdAt,value
2018-11-22T00:00:46.779Z,4.89
2018-11-22T00:01:46.759Z,4.66
2018-11-22T00:02:46.747Z,4.52
2018-11-22T00:03:46.728Z,4.30
2018-11-22T00:04:46.709Z,4.15
2018-11-22T00:05:46.703Z,4.04
2018-11-22T00:06:46.684Z,4.06
2018-11-22T00:07:46.683Z,4.11
2018-11-22T00:08:46.646Z,4.02
2018-11-22T00:09:46.634Z,4.04
2018-11-22T00:10:46.615Z,4.15
2018-11-22T00:11:46.603Z,4.11
2018-11-22T00:12:46.585Z,4.12
2018-11-22T00:13:46.583Z,4.02
2018-11-22T00:14:46.550Z,4.00
2018-11-22T00:15:46.537Z,4.08
2018-11-22T00:16:46.527Z,4.04
2018-11-22T00:17:46.506Z,4.11
2018-11-22T00:18:46.502Z,3.98
2018-11-22T00:19:46.470Z,4.02
2018-11-22T00:20:46.464Z,4.09
2018-11-22T00:21:46.441Z,4.11
2018-11-22T00:22:46.431Z,4.05
2018-11-22T00:23:46.409Z,4.00
2018-11-22T00:24:46.393Z,3.96
2018-11-22T00:25:46.379Z,4.02
2018-11-22T00:26:46.361Z,3.93
2018-11-22T00:27:46.343Z,3.90
2018-11-22T00:28:46.333Z,3.86
2018-11-22T00:29:46.311Z,3.93
2018-11-22T00:30:46.302Z,3.93
2018-11-22T00:31:46.282Z,3.94
2018-11-22T00:32:46.260Z,3.86
2018-11-22T00:33:46.249Z,4.00
2018-11-22T00:34:46.236Z,4.02
2018-11-22T00:35:46.221Z,3.98
2018-11-22T00:36:46.199Z,4.06
2018-11-22T00:37:46.185Z,3.96
2018-11-22T00:38:46.200Z,4.09
2018-11-22T00:39:46.150Z,3.94
2018-11-22T00:40:46.139Z,4.06
2018-11-22T00:41:46.123Z,3.97
2018-11-22T00:42:46.102Z,4.12
2018-11-22T00:43:46.090Z,3.98
2018-11-22T00:44:46.075Z,3.98
2018-11-22T00:45:46.051Z,4.06
2018-11-22T00:46:46.041Z,4.04
2018-11-22T00:47:46.036Z,4.02
2018-11-22T00:48:46.028Z,4.05
2018-11-22T00:49:45.996Z,4.12
2018-11-22T00:50:45.975Z,4.09
2018-11-22T00:51:45.967Z,4.08
2018-11-22T00:52:45.946Z,4.08
2018-11-22T00:53:45.933Z,4.04
2018-11-22T00:54:45.909Z,4.02
2018-11-22T00:55:45.895Z,3.98
2018-11-22T00:56:45.883Z,3.97
2018-11-22T00:57:45.863Z,4.05
2018-11-22T00:58:45.847Z,4.12
2018-11-22T00:59:45.827Z,4.08
2018-11-22T01:00:45.825Z,3.97
2018-11-22T01:01:45.798Z,4.09
2018-11-22T01:02:45.782Z,4.11
2018-11-22T01:03:45.767Z,4.08
2018-11-22T01:04:45.750Z,4.08
2018-11-22T01:05:45.738Z,4.08
2018-11-22T01:06:45.718Z,4.09
2018-11-22T01:07:45.700Z,4.11
2018-11-22T01:08:45.692Z,4.09
2018-11-22T01:09:45.669Z,4.06
2018-11-22T01:10:45.650Z,4.09
2018-11-22T01:11:45.637Z,4.09
2018-11-22T01:12:45.625Z,4.05
2018-11-22T01:13:45.617Z,4.08
2018-11-22T01:14:45.595Z,3.98
2018-11-22T01:15:45.571Z,4.02
2018-11-22T01:16:45.563Z,3.98
2018-11-22T01:17:45.539Z,4.02
2018-11-22T01:18:45.521Z,4.09
2018-11-22T01:19:45.507Z,3.96
2018-11-22T01:20:45.494Z,4.08
2018-11-22T01:21:45.473Z,4.02
2018-11-22T01:22:45.461Z,4.04
2018-11-22T01:23:45.443Z,4.05
2018-11-22T01:24:45.430Z,4.05
2018-11-22T01:25:45.410Z,3.97
2018-11-22T01:26:45.394Z,4.09
2018-11-22T01:27:45.392Z,3.98
2018-11-22T01:28:45.364Z,3.94
2018-11-22T01:29:45.359Z,4.02
2018-11-22T01:30:45.323Z,3.97
2018-11-22T01:31:45.312Z,4.04
2018-11-22T01:32:45.302Z,3.93
2018-11-22T01:33:45.285Z,3.98
2018-11-22T01:34:45.265Z,3.90
2018-11-22T01:35:45.247Z,3.86
2018-11-22T01:36:45.233Z,3.88
2018-11-22T01:37:45.215Z,3.98
2018-11-22T01:38:45.195Z,3.91
2018-11-22T01:39:45.185Z,3.88
2018-11-22T01:40:45.168Z,3.80
2018-11-22T01:41:45.156Z,3.83
2018-11-22T01:42:45.135Z,3.86
2018-11-22T01:43:45.122Z,3.84
2018-11-22T01:44:45.101Z,3.87
2018-11-22T01:45:45.090Z,3.83
2018-11-22T01:46:45.071Z,3.86
2018-11-22T01:47:45.057Z,3.80
2018-11-22T01:48:45.037Z,3.84
2018-11-22T01:49:45.026Z,3.76
2018-11-22T01:50:45.000Z,3.88
2018-11-22T01:51:44.996Z,3.84
2018-11-22T01:52:44.973Z,3.78
2018-11-22T01:53:44.954Z,3.78
2018-11-22T01:54:44.946Z,3.83
2018-11-22T01:55:44.926Z,3.86
2018-11-22T01:56:44.907Z,3.79
2018-11-22T01:57:44.895Z,3.76
2018-11-22T01:58:44.874Z,3.72
2018-11-22T01:59:44.859Z,3.78
2018-11-22T02:00:44.843Z,3.78
2018-11-22T02:01:44.823Z,3.76
2018-11-22T02:02:44.813Z,3.73
2018-11-22T02:03:44.799Z,3.76
2018-11-22T02:04:44.777Z,3.72
2018-11-22T02:05:44.763Z,3.69
2018-11-22T02:06:44.744Z,3.73
2018-11-22T02:07:44.729Z,3.72
2018-11-22T02:08:44.716Z,3.70
2018-11-22T02:09:44.698Z,3.83
2018-11-22T02:10:44.684Z,3.78
2018-11-22T02:11:44.662Z,3.84
2018-11-22T02:12:44.647Z,3.83
2018-11-22T02:13:44.633Z,3.80
2018-11-22T02:14:44.617Z,3.87
2018-11-22T02:15:44.606Z,3.86
2018-11-22T02:16:44.577Z,3.83
2018-11-22T02:17:44.564Z,3.86
2018-11-22T02:18:44.550Z,3.86
2018-11-22T02:19:44.532Z,3.83
2018-11-22T02:20:44.518Z,3.80
2018-11-22T02:21:44.507Z,3.83
2018-11-22T02:22:44.489Z,3.79
2018-11-22T02:23:44.483Z,3.84
2018-11-22T02:24:44.456Z,3.84
2018-11-22T02:25:44.438Z,3.86
2018-11-22T02:26:44.420Z,3.86
2018-11-22T02:27:44.406Z,3.93
2018-11-22T02:28:44.389Z,3.79
2018-11-22T02:29:44.367Z,3.83
2018-11-22T02:30:44.352Z,3.78
2018-11-22T02:31:44.339Z,3.79
2018-11-22T02:32:44.329Z,3.86
2018-11-22T02:33:44.306Z,3.80
2018-11-22T02:34:44.286Z,3.73
2018-11-22T02:35:44.270Z,3.78
2018-11-22T02:36:44.259Z,3.87
2018-11-22T02:37:44.238Z,3.83
2018-11-22T02:38:44.227Z,3.78
2018-11-22T02:39:44.210Z,3.80
2018-11-22T02:40:44.191Z,3.75
2018-11-22T02:41:44.175Z,3.69
2018-11-22T02:42:44.155Z,3.76
2018-11-22T02:43:44.151Z,3.72
2018-11-22T02:44:44.129Z,3.69
2018-11-22T02:45:44.111Z,3.65
2018-11-22T02:46:44.096Z,3.72
2018-11-22T02:47:44.078Z,3.75
2018-11-22T02:48:44.065Z,3.73
2018-11-22T02:49:44.048Z,3.69
2018-11-22T02:50:44.035Z,3.76
2018-11-22T02:51:44.022Z,3.78
2018-11-22T02:52:43.999Z,3.79
2018-11-22T02:53:43.981Z,3.86
2018-11-22T02:54:43.963Z,3.86
2018-11-22T02:55:43.951Z,3.87
2018-11-22T02:56:43.927Z,3.91
2018-11-22T02:57:43.919Z,3.90
2018-11-22T02:58:43.900Z,3.96
2018-11-22T02:59:43.889Z,3.86
2018-11-22T03:00:43.860Z,3.86
2018-11-22T03:01:43.852Z,3.93
2018-11-22T03:02:43.833Z,3.94
2018-11-22T03:03:43.816Z,3.84
2018-11-22T03:04:43.801Z,3.93
2018-11-22T03:05:43.786Z,3.87
2018-11-22T03:06:43.770Z,3.91
2018-11-22T03:07:43.750Z,3.98
2018-11-22T03:08:43.752Z,3.96
2018-11-22T03:09:43.762Z,4.00
2018-11-22T03:10:43.701Z,3.97
2018-11-22T03:11:43.687Z,3.94
2018-11-22T03:12:43.667Z,4.02
2018-11-22T03:13:43.651Z,3.97
2018-11-22T03:14:43.637Z,4.05
2018-11-22T03:15:43.622Z,4.09
2018-11-22T03:16:43.605Z,3.96
2018-11-22T03:17:43.592Z,4.11
2018-11-22T03:18:43.575Z,3.97
2018-11-22T03:19:43.558Z,4.08
2018-11-22T03:20:43.548Z,4.00
2018-11-22T03:21:43.526Z,4.08
2018-11-22T03:22:43.504Z,4.08
2018-11-22T03:23:43.496Z,3.96
2018-11-22T03:24:43.482Z,4.06
2018-11-22T03:25:43.459Z,4.12
2018-11-22T03:26:43.445Z,4.11
2018-11-22T03:27:43.435Z,4.00
2018-11-22T03:28:43.407Z,3.97
2018-11-22T03:29:43.392Z,4.00
2018-11-22T03:30:43.379Z,3.96
2018-11-22T03:31:43.357Z,4.12
2018-11-22T03:32:43.342Z,4.04
2018-11-22T03:33:43.333Z,4.05
2018-11-22T03:34:43.312Z,4.12
2018-11-22T03:35:43.298Z,4.04
2018-11-22T03:36:43.282Z,4.05
2018-11-22T03:37:43.259Z,4.05
2018-11-22T03:38:43.249Z,4.06
2018-11-22T03:39:43.234Z,3.97
2018-11-22T03:40:43.211Z,4.02
2018-11-22T03:41:43.201Z,4.06
2018-11-22T03:42:43.189Z,4.05
2018-11-22T03:43:43.167Z,4.06
2018-11-22T03:44:43.160Z,4.05
2018-11-22T03:45:43.134Z,4.08
2018-11-22T03:46:43.120Z,4.11
2018-11-22T03:47:43.105Z,4.06
2018-11-22T03:48:43.088Z,4.15
2018-11-22T03:49:43.075Z,4.11
2018-11-22T03:50:43.117Z,4.06
2018-11-22T03:51:43.037Z,4.20
2018-11-22T03:52:43.023Z,4.06
2018-11-22T03:53:43.005Z,4.15
2018-11-22T03:54:42.998Z,4.12
2018-11-22T03:55:42.981Z,4.24
2018-11-22T03:56:42.956Z,4.15
2018-11-22T03:57:42.937Z,4.12
2018-11-22T03:58:42.927Z,4.20
2018-11-22T03:59:42.902Z,4.15
2018-11-22T04:00:42.903Z,4.16
2018-11-22T04:01:42.877Z,4.18
2018-11-22T04:02:42.866Z,4.18
2018-11-22T04:03:42.838Z,4.12
2018-11-22T04:04:42.829Z,4.16
2018-11-22T04:05:42.809Z,4.18
2018-11-22T04:06:42.794Z,4.20
2018-11-22T04:07:42.780Z,4.15
2018-11-22T04:08:42.759Z,4.12
2018-11-22T04:09:42.754Z,4.05
2018-11-22T04:10:42.732Z,4.04
2018-11-22T04:11:42.718Z,3.96
2018-11-22T04:12:42.697Z,3.87
2018-11-22T04:13:42.685Z,3.90
2018-11-22T04:14:42.666Z,3.93
2018-11-22T04:15:42.653Z,3.91
2018-11-22T04:16:42.631Z,3.88
2018-11-22T04:17:42.614Z,3.97
2018-11-22T04:18:42.618Z,3.98
2018-11-22T04:19:42.590Z,3.96
2018-11-22T04:20:42.574Z,3.93
2018-11-22T04:21:42.552Z,4.05
2018-11-22T04:22:42.541Z,4.11
2018-11-22T04:23:42.522Z,4.15
2018-11-22T04:24:42.502Z,4.05
2018-11-22T04:25:42.488Z,4.12
2018-11-22T04:26:42.472Z,4.08
2018-11-22T04:27:42.465Z,4.14
2018-11-22T04:28:42.443Z,4.09
2018-11-22T04:29:42.419Z,4.15
2018-11-22T04:30:42.410Z,4.08
2018-11-22T04:31:42.396Z,4.18
2018-11-22T04:32:42.373Z,4.16
2018-11-22T04:33:42.363Z,4.04
2018-11-22T04:34:42.346Z,4.09
2018-11-22T04:35:42.319Z,4.11
2018-11-22T04:36:42.311Z,4.14
2018-11-22T04:37:42.297Z,4.23
2018-11-22T04:38:42.280Z,4.14
2018-11-22T04:39:42.258Z,4.23
2018-11-22T04:40:42.244Z,4.24
2018-11-22T04:41:42.226Z,4.12
2018-11-22T04:42:42.216Z,4.32
2018-11-22T04:43:42.196Z,4.24
2018-11-22T04:44:42.176Z,4.14
2018-11-22T04:45:42.169Z,4.29
2018-11-22T04:46:42.143Z,4.34
2018-11-22T04:47:42.133Z,4.26
2018-11-22T04:48:42.117Z,4.26
2018-11-22T04:49:42.095Z,4.27
2018-11-22T04:50:42.084Z,4.30
2018-11-22T04:51:42.063Z,4.26
2018-11-22T04:52:42.059Z,4.36
2018-11-22T04:53:42.036Z,4.30
2018-11-22T04:54:42.020Z,4.32
2018-11-22T04:55:42.000Z,4.24
2018-11-22T04:56:41.984Z,4.16
2018-11-22T04:57:41.972Z,4.32
2018-11-22T04:58:41.952Z,4.20
2018-11-22T04:59:41.936Z,4.20
2018-11-22T05:00:41.922Z,4.24
2018-11-22T05:01:41.905Z,4.16
2018-11-22T05:02:41.889Z,4.06
2018-11-22T05:03:41.876Z,3.98
2018-11-22T05:04:41.858Z,4.11
2018-11-22T05:05:41.835Z,3.97
2018-11-22T05:06:41.823Z,4.06
2018-11-22T05:07:41.803Z,4.12
2018-11-22T05:08:41.793Z,4.04
2018-11-22T05:09:41.781Z,4.14
2018-11-22T05:10:41.762Z,4.18
2018-11-22T05:11:41.736Z,4.15
2018-11-22T05:12:41.724Z,4.11
2018-11-22T05:13:41.708Z,4.23
2018-11-22T05:14:41.698Z,4.32
2018-11-22T05:15:41.684Z,4.26
2018-11-22T05:16:41.662Z,4.33
2018-11-22T05:17:41.645Z,4.29
2018-11-22T05:18:41.629Z,4.27
2018-11-22T05:19:41.613Z,4.24
2018-11-22T05:20:41.600Z,4.33
2018-11-22T05:21:41.583Z,4.34
2018-11-22T05:22:41.569Z,4.37
2018-11-22T05:23:41.551Z,4.37
2018-11-22T05:24:41.537Z,4.36
2018-11-22T05:25:41.518Z,4.32
2018-11-22T05:26:41.499Z,4.34
2018-11-22T05:27:41.493Z,4.34
2018-11-22T05:28:41.468Z,4.29
2018-11-22T05:29:41.455Z,4.16
2018-11-22T05:30:41.435Z,4.16
2018-11-22T05:31:41.421Z,4.22
2018-11-22T05:32:41.405Z,4.14
2018-11-22T05:33:41.390Z,4.22
2018-11-22T05:34:41.374Z,4.27
2018-11-22T05:35:41.358Z,4.29
2018-11-22T05:36:41.346Z,4.32
2018-11-22T05:37:41.325Z,4.32
2018-11-22T05:38:41.302Z,4.30
2018-11-22T05:39:41.292Z,4.36
2018-11-22T05:40:41.274Z,4.34
2018-11-22T05:41:43.865Z,4.34
2018-11-22T05:42:41.247Z,4.36
2018-11-22T05:43:41.225Z,4.36
2018-11-22T05:44:41.215Z,4.36
2018-11-22T05:45:41.195Z,4.36
2018-11-22T05:46:41.173Z,4.40
2018-11-22T05:47:41.166Z,4.37
2018-11-22T05:48:41.143Z,4.36
2018-11-22T05:49:41.132Z,4.40
2018-11-22T05:50:41.114Z,4.37
2018-11-22T05:51:41.105Z,4.41
2018-11-22T05:52:41.082Z,4.42
2018-11-22T05:53:41.068Z,4.44
2018-11-22T05:54:41.052Z,4.42
2018-11-22T05:55:41.039Z,4.48
2018-11-22T05:56:41.020Z,4.47
2018-11-22T05:57:41.001Z,4.40
2018-11-22T05:58:41.001Z,4.48
2018-11-22T05:59:40.971Z,4.44
2018-11-22T06:00:40.955Z,4.42
2018-11-22T06:01:40.940Z,4.44
2018-11-22T06:02:40.926Z,4.44
2018-11-22T06:03:40.911Z,4.47
2018-11-22T06:04:40.896Z,4.51
2018-11-22T06:05:40.872Z,4.52
2018-11-22T06:06:40.859Z,4.58
2018-11-22T06:07:40.841Z,4.58
2018-11-22T06:08:40.831Z,4.52
2018-11-22T06:09:40.812Z,4.44
2018-11-22T06:10:40.811Z,4.45
2018-11-22T06:11:40.779Z,4.42
2018-11-22T06:12:40.765Z,4.42
2018-11-22T06:13:40.745Z,4.44
2018-11-22T06:14:40.728Z,4.52
2018-11-22T06:15:40.714Z,4.45
2018-11-22T06:16:40.708Z,4.45
2018-11-22T06:17:40.686Z,4.45
2018-11-22T06:18:40.669Z,4.59
2018-11-22T06:19:40.654Z,4.51
2018-11-22T06:20:40.638Z,4.59
2018-11-22T06:21:40.621Z,4.60
2018-11-22T06:22:40.599Z,4.55
2018-11-22T06:23:40.585Z,4.59
2018-11-22T06:24:40.569Z,4.59
2018-11-22T06:25:40.557Z,4.62
2018-11-22T06:26:40.541Z,4.54
2018-11-22T06:27:40.527Z,4.48
2018-11-22T06:28:40.508Z,4.58
2018-11-22T06:29:40.496Z,4.54
2018-11-22T06:30:40.476Z,4.42
2018-11-22T06:31:40.460Z,4.45
2018-11-22T06:32:40.442Z,4.42
2018-11-22T06:33:40.425Z,4.45
2018-11-22T06:34:40.409Z,4.48
2018-11-22T06:35:40.399Z,4.48
2018-11-22T06:36:40.383Z,4.51
2018-11-22T06:37:40.361Z,4.50
2018-11-22T06:38:40.348Z,4.45
2018-11-22T06:39:40.332Z,4.47
2018-11-22T06:40:40.314Z,4.54
2018-11-22T06:41:40.304Z,4.48
2018-11-22T06:42:40.284Z,4.58
2018-11-22T06:43:40.269Z,4.59
2018-11-22T06:44:40.254Z,4.59
2018-11-22T06:45:40.235Z,4.52
2018-11-22T06:46:40.221Z,4.63
2018-11-22T06:47:40.198Z,4.70
2018-11-22T06:48:40.185Z,4.59
2018-11-22T06:49:40.169Z,4.70
2018-11-22T06:50:40.156Z,4.63
2018-11-22T06:51:40.135Z,4.63
2018-11-22T06:52:40.123Z,4.69
2018-11-22T06:53:40.108Z,4.69
2018-11-22T06:54:40.096Z,4.69
2018-11-22T06:55:40.074Z,4.66
2018-11-22T06:56:40.058Z,4.66
2018-11-22T06:57:40.054Z,4.67
2018-11-22T06:58:40.031Z,4.66
2018-11-22T06:59:40.018Z,4.72
2018-11-22T07:00:39.992Z,4.69
2018-11-22T07:01:39.977Z,4.69
2018-11-22T07:02:39.966Z,4.75
2018-11-22T07:03:39.947Z,4.70
2018-11-22T07:04:39.933Z,4.70
2018-11-22T07:05:39.915Z,4.70
2018-11-22T07:06:39.900Z,4.67
2018-11-22T07:07:39.879Z,4.72
2018-11-22T07:08:39.868Z,4.75
2018-11-22T07:09:39.852Z,4.69
2018-11-22T07:10:39.839Z,4.86
2018-11-22T07:11:39.825Z,4.85
2018-11-22T07:12:39.804Z,4.75
2018-11-22T07:13:39.790Z,4.78
2018-11-22T07:14:39.778Z,4.82
2018-11-22T07:15:39.757Z,4.85
2018-11-22T07:16:39.740Z,4.88
2018-11-22T07:17:39.722Z,4.78
2018-11-22T07:18:39.708Z,4.73
2018-11-22T07:19:39.699Z,4.78
2018-11-22T07:20:39.676Z,4.86
2018-11-22T07:21:39.663Z,4.89
2018-11-22T07:22:39.648Z,4.80
2018-11-22T07:23:39.631Z,4.86
2018-11-22T07:24:39.614Z,4.89
2018-11-22T07:25:39.601Z,4.97
2018-11-22T07:26:39.590Z,4.94
2018-11-22T07:27:39.569Z,4.97
2018-11-22T07:28:39.551Z,4.94
2018-11-22T07:29:39.535Z,4.97
2018-11-22T07:30:42.446Z,4.94
2018-11-22T07:31:39.504Z,4.99
2018-11-22T07:32:39.489Z,4.96
2018-11-22T07:33:39.472Z,4.97
2018-11-22T07:34:39.456Z,5.09
2018-11-22T07:35:39.438Z,5.06
2018-11-22T07:36:39.424Z,5.07
2018-11-22T07:37:39.407Z,5.12
2018-11-22T07:38:39.392Z,5.09
2018-11-22T07:39:39.378Z,5.18
2018-11-22T07:40:39.356Z,5.15
2018-11-22T07:41:39.349Z,5.15
2018-11-22T07:42:39.324Z,5.15
2018-11-22T07:43:39.312Z,5.13
2018-11-22T07:44:39.300Z,5.27
2018-11-22T07:45:39.284Z,5.27
2018-11-22T07:46:39.268Z,5.20
2018-11-22T07:47:39.264Z,5.25
2018-11-22T07:48:39.241Z,5.27
2018-11-22T07:49:39.229Z,5.27
2018-11-22T07:50:39.206Z,5.31
2018-11-22T07:51:39.187Z,5.24
2018-11-22T07:52:39.169Z,5.31
2018-11-22T07:53:39.151Z,5.38
2018-11-22T07:54:39.139Z,5.36
2018-11-22T07:55:39.125Z,5.31
2018-11-22T07:56:39.109Z,5.42
2018-11-22T07:57:39.098Z,5.40
2018-11-22T07:58:39.080Z,5.43
2018-11-22T07:59:39.061Z,5.57
2018-11-22T08:00:39.047Z,5.60
2018-11-22T08:01:39.028Z,5.56
2018-11-22T08:02:39.016Z,5.57
2018-11-22T08:03:39.003Z,5.58
2018-11-22T08:04:38.982Z,5.64
2018-11-22T08:05:38.968Z,5.63
2018-11-22T08:06:38.958Z,5.71
2018-11-22T08:07:38.936Z,5.78
2018-11-22T08:08:38.923Z,5.79
2018-11-22T08:09:38.903Z,5.85
2018-11-22T08:10:38.889Z,5.81
2018-11-22T08:11:38.871Z,5.79
2018-11-22T08:12:39.012Z,5.94
2018-11-22T08:13:38.846Z,5.91
2018-11-22T08:14:38.826Z,5.97
2018-11-22T08:15:38.808Z,6.00
2018-11-22T08:16:38.798Z,6.14
2018-11-22T08:17:38.781Z,6.09
2018-11-22T08:18:38.765Z,6.19
2018-11-22T08:19:38.753Z,6.18
2018-11-22T08:20:38.736Z,6.37
2018-11-22T08:21:38.723Z,6.44
2018-11-22T08:22:38.704Z,6.46
2018-11-22T08:23:38.692Z,6.49
2018-11-22T08:24:38.676Z,6.58
2018-11-22T08:25:38.662Z,6.51
2018-11-22T08:26:38.644Z,6.67
2018-11-22T08:27:38.630Z,6.77
2018-11-22T08:28:38.615Z,6.91
2018-11-22T08:29:38.597Z,7.03
2018-11-22T08:30:38.585Z,7.12
2018-11-22T08:31:38.569Z,7.16
2018-11-22T08:32:38.553Z,7.23
2018-11-22T08:33:38.539Z,7.48
2018-11-22T08:34:38.525Z,7.55
2018-11-22T08:35:38.512Z,7.79
2018-11-22T08:36:38.492Z,8.00
2018-11-22T08:37:38.480Z,8.18
2018-11-22T08:38:38.457Z,8.23
2018-11-22T08:39:38.446Z,8.30
2018-11-22T08:40:38.429Z,8.48
2018-11-22T08:41:38.413Z,8.56
2018-11-22T08:42:38.403Z,8.71
2018-11-22T08:43:38.396Z,8.92
2018-11-22T08:44:38.373Z,8.91
2018-11-22T08:45:38.358Z,8.99
2018-11-22T08:46:38.342Z,9.10
2018-11-22T08:47:38.328Z,9.26
2018-11-22T08:48:38.314Z,9.40
2018-11-22T08:49:38.298Z,9.53
2018-11-22T08:50:38.282Z,9.65
2018-11-22T08:51:38.274Z,9.69
2018-11-22T08:52:38.254Z,9.71
2018-11-22T08:53:38.248Z,9.60
2018-11-22T08:54:38.231Z,9.56
2018-11-22T08:55:38.213Z,9.48
2018-11-22T08:56:38.202Z,9.39
2018-11-22T08:57:38.181Z,9.48
2018-11-22T08:58:38.172Z,9.48
2018-11-22T08:59:38.158Z,9.39
2018-11-22T09:00:38.148Z,9.36
2018-11-22T09:01:38.129Z,9.39
2018-11-22T09:02:38.115Z,9.36
2018-11-22T09:03:38.100Z,9.54
2018-11-22T09:04:38.087Z,9.53
2018-11-22T09:05:38.072Z,9.60
2018-11-22T09:06:38.058Z,9.68
2018-11-22T09:07:38.045Z,9.83
2018-11-22T09:08:38.031Z,9.81
2018-11-22T09:09:38.019Z,9.83
2018-11-22T09:10:38.001Z,9.93
2018-11-22T09:11:37.992Z,9.89
2018-11-22T09:12:37.972Z,9.91
2018-11-22T09:13:37.957Z,9.97
2018-11-22T09:14:37.943Z,10.01
2018-11-22T09:15:37.931Z,9.99
2018-11-22T09:16:37.913Z,9.97
2018-11-22T09:17:37.906Z,10.12
2018-11-22T09:18:37.886Z,10.09
2018-11-22T09:19:37.913Z,10.09
2018-11-22T09:20:37.861Z,10.18
2018-11-22T09:21:37.846Z,10.08
2018-11-22T09:22:37.832Z,10.11
2018-11-22T09:23:38.547Z,10.08
2018-11-22T09:24:37.804Z,10.01
2018-11-22T09:25:37.795Z,10.01
2018-11-22T09:26:37.779Z,10.04
2018-11-22T09:27:37.778Z,10.05
2018-11-22T09:28:37.756Z,10.14
2018-11-22T09:29:39.542Z,10.09
2018-11-22T09:30:37.723Z,10.25
2018-11-22T09:31:37.717Z,10.25
2018-11-22T09:32:37.701Z,10.34
2018-11-22T09:33:37.688Z,10.40
2018-11-22T09:34:37.671Z,10.36
2018-11-22T09:35:37.661Z,10.32
2018-11-22T09:36:37.643Z,10.36
2018-11-22T09:37:37.629Z,10.53
2018-11-22T09:38:37.615Z,10.59
2018-11-22T09:39:37.603Z,10.68
2018-11-22T09:40:37.592Z,10.66
2018-11-22T09:41:37.576Z,10.74
2018-11-22T09:42:37.566Z,10.76
2018-11-22T09:43:37.554Z,10.96
2018-11-22T09:44:37.548Z,11.14
2018-11-22T09:45:37.522Z,11.18
2018-11-22T09:46:37.512Z,11.28
2018-11-22T09:47:37.500Z,11.42
2018-11-22T09:48:37.498Z,11.33
2018-11-22T09:49:37.471Z,11.14
2018-11-22T09:50:37.461Z,11.15
2018-11-22T09:51:37.450Z,11.07
2018-11-22T09:52:37.438Z,11.04
2018-11-22T09:53:37.418Z,11.02
2018-11-22T09:54:37.407Z,10.88
2018-11-22T09:55:37.396Z,10.81
2018-11-22T09:56:37.382Z,10.81
2018-11-22T09:57:37.372Z,10.79
2018-11-22T09:58:37.356Z,10.84
2018-11-22T09:59:37.344Z,10.79
2018-11-22T10:00:37.335Z,10.81
2018-11-22T10:01:37.318Z,10.76
2018-11-22T10:02:37.300Z,10.99
2018-11-22T10:03:37.292Z,11.10
2018-11-22T10:04:37.295Z,11.18
2018-11-22T10:05:37.300Z,11.24
2018-11-22T10:06:37.253Z,11.46
2018-11-22T10:07:37.239Z,11.39
2018-11-22T10:08:37.286Z,11.36
2018-11-22T10:09:37.208Z,11.40
2018-11-22T10:10:37.200Z,11.51
2018-11-22T10:11:37.188Z,11.43
2018-11-22T10:12:37.288Z,11.42
2018-11-22T10:13:37.165Z,11.44
2018-11-22T10:14:37.142Z,11.49
2018-11-22T10:15:37.137Z,11.42
2018-11-22T10:16:37.125Z,11.40
2018-11-22T10:17:37.113Z,11.49
2018-11-22T10:18:37.126Z,11.58
2018-11-22T10:19:37.083Z,11.69
2018-11-22T10:20:37.073Z,11.78
2018-11-22T10:21:37.060Z,12.04
2018-11-22T10:22:37.096Z,12.24
2018-11-22T10:23:37.086Z,12.29
2018-11-22T10:24:37.026Z,12.35
2018-11-22T10:25:37.017Z,12.52
2018-11-22T10:26:37.008Z,12.75
2018-11-22T10:27:36.992Z,12.86
2018-11-22T10:28:36.982Z,12.87
2018-11-22T10:29:36.957Z,12.86
2018-11-22T10:30:36.947Z,12.72
2018-11-22T10:31:36.963Z,12.59
2018-11-22T10:32:36.929Z,12.62
2018-11-22T10:33:36.915Z,12.62
2018-11-22T10:34:36.903Z,12.68
2018-11-22T10:35:36.887Z,12.65
2018-11-22T10:36:36.877Z,12.78
2018-11-22T10:37:36.892Z,12.79
2018-11-22T10:38:36.854Z,12.89
2018-11-22T10:39:36.840Z,12.89
2018-11-22T10:40:36.832Z,12.90
2018-11-22T10:41:36.818Z,13.07
2018-11-22T10:42:36.876Z,13.08
2018-11-22T10:43:37.670Z,13.19
2018-11-22T10:44:36.782Z,13.20
2018-11-22T10:45:36.766Z,13.25
2018-11-22T10:46:36.762Z,13.32
2018-11-22T10:47:36.748Z,13.29
2018-11-22T10:48:36.738Z,13.39
2018-11-22T10:49:36.725Z,13.51
2018-11-22T10:50:36.715Z,13.67
2018-11-22T10:51:36.697Z,13.69
2018-11-22T10:52:36.681Z,13.77
2018-11-22T10:53:36.674Z,13.67
2018-11-22T10:54:36.664Z,13.81
2018-11-22T10:55:36.655Z,13.82
2018-11-22T10:56:36.636Z,13.88
2018-11-22T10:57:36.632Z,13.92
2018-11-22T10:58:36.612Z,14.09
2018-11-22T10:59:36.610Z,14.10
2018-11-22T11:00:36.594Z,14.03
2018-11-22T11:01:36.581Z,14.12
2018-11-22T11:02:36.571Z,14.29
2018-11-22T11:03:36.562Z,14.27
2018-11-22T11:04:36.551Z,14.25
2018-11-22T11:05:36.541Z,14.32
2018-11-22T11:06:36.525Z,14.27
2018-11-22T11:07:36.518Z,14.46
2018-11-22T11:08:36.503Z,14.52
2018-11-22T11:09:36.492Z,14.68
2018-11-22T11:10:36.476Z,14.78
2018-11-22T11:11:36.466Z,14.80
2018-11-22T11:12:36.462Z,14.78
2018-11-22T11:13:36.448Z,14.62
2018-11-22T11:14:36.436Z,14.58
2018-11-22T11:15:36.425Z,14.50
2018-11-22T11:16:36.410Z,14.45
2018-11-22T11:17:36.399Z,14.40
2018-11-22T11:18:36.396Z,14.45
2018-11-22T11:19:36.384Z,14.62
2018-11-22T11:20:36.367Z,14.77
2018-11-22T11:21:36.356Z,14.89
2018-11-22T11:22:36.345Z,14.99
2018-11-22T11:23:36.336Z,14.96
2018-11-22T11:24:36.803Z,15.01
2018-11-22T11:25:36.315Z,14.86
2018-11-22T11:26:36.302Z,14.69
2018-11-22T11:27:36.292Z,14.80
2018-11-22T11:28:36.284Z,14.81
2018-11-22T11:29:36.273Z,14.83
2018-11-22T11:30:36.262Z,14.96
2018-11-22T11:31:36.244Z,15.16
2018-11-22T11:32:36.242Z,15.35
2018-11-22T11:33:36.224Z,15.44
2018-11-22T11:34:36.214Z,15.27
2018-11-22T11:35:36.207Z,15.09
2018-11-22T11:36:36.197Z,14.94
2018-11-22T11:37:36.182Z,14.77
2018-11-22T11:38:36.171Z,14.78
2018-11-22T11:39:36.163Z,14.86
2018-11-22T11:40:36.151Z,14.92
2018-11-22T11:41:36.139Z,14.96
2018-11-22T11:42:36.129Z,15.01
2018-11-22T11:43:36.125Z,14.96
2018-11-22T11:44:36.107Z,14.95
2018-11-22T11:45:36.099Z,14.99
2018-11-22T11:46:36.106Z,14.99
2018-11-22T11:47:36.075Z,14.68
2018-11-22T11:48:36.080Z,14.61
2018-11-22T11:49:36.047Z,14.55
2018-11-22T11:50:36.041Z,14.54
2018-11-22T11:51:36.031Z,14.35
2018-11-22T11:52:36.026Z,14.33
2018-11-22T11:53:41.521Z,14.42
2018-11-22T11:54:36.006Z,14.46
2018-11-22T11:55:35.996Z,14.54
2018-11-22T11:56:35.977Z,14.65
2018-11-22T11:57:35.963Z,14.92
2018-11-22T11:58:35.980Z,15.09
2018-11-22T11:59:35.947Z,15.25
2018-11-22T12:00:35.942Z,15.35
2018-11-22T12:01:35.939Z,15.43
2018-11-22T12:02:35.911Z,15.44
2018-11-22T12:03:35.915Z,15.54
2018-11-22T12:04:35.901Z,15.46
2018-11-22T12:05:35.883Z,15.35
2018-11-22T12:06:35.867Z,15.41
2018-11-22T12:07:35.862Z,15.46
2018-11-22T12:08:35.856Z,15.57
2018-11-22T12:09:35.840Z,15.54
2018-11-22T12:10:35.839Z,15.65
2018-11-22T12:11:35.818Z,15.74
2018-11-22T12:12:35.816Z,15.83
2018-11-22T12:13:35.805Z,15.83
2018-11-22T12:14:35.789Z,15.76
2018-11-22T12:15:35.779Z,15.60
2018-11-22T12:16:35.771Z,15.69
2018-11-22T12:17:35.755Z,15.80
2018-11-22T12:18:37.063Z,15.87
2018-11-22T12:19:35.744Z,16.00
2018-11-22T12:20:35.729Z,16.04
2018-11-22T12:21:35.720Z,15.97
2018-11-22T12:22:35.706Z,16.01
2018-11-22T12:23:35.696Z,15.74
2018-11-22T12:24:35.692Z,15.76
2018-11-22T12:25:35.675Z,15.69
2018-11-22T12:26:35.672Z,15.38
2018-11-22T12:27:35.661Z,15.09
2018-11-22T12:28:35.640Z,14.68
2018-11-22T12:29:35.642Z,14.39
2018-11-22T12:30:35.634Z,14.06
2018-11-22T12:31:35.619Z,13.82
2018-11-22T12:32:35.657Z,13.32
2018-11-22T12:33:35.598Z,13.17
2018-11-22T12:34:35.584Z,13.04
2018-11-22T12:35:35.581Z,12.87
2018-11-22T12:36:35.570Z,12.74
2018-11-22T12:37:39.143Z,12.56
2018-11-22T12:38:35.543Z,12.14
2018-11-22T12:39:35.531Z,11.98
2018-11-22T12:40:35.531Z,11.65
2018-11-22T12:41:35.509Z,11.65
2018-11-22T12:42:35.567Z,11.65
2018-11-22T12:43:35.487Z,11.40
2018-11-22T12:44:35.471Z,11.29
2018-11-22T12:45:35.464Z,11.32
2018-11-22T12:46:35.470Z,11.33
2018-11-22T12:47:35.446Z,11.37
2018-11-22T12:48:35.434Z,11.37
2018-11-22T12:49:35.423Z,11.37
2018-11-22T12:50:35.415Z,11.33
2018-11-22T12:51:35.399Z,11.36
2018-11-22T12:52:35.392Z,11.43
2018-11-22T12:53:35.379Z,11.25
2018-11-22T12:54:35.361Z,11.32
2018-11-22T12:55:35.351Z,11.25
2018-11-22T12:56:35.335Z,11.32
2018-11-22T12:57:35.335Z,11.32
2018-11-22T12:58:35.316Z,11.44
2018-11-22T12:59:35.304Z,11.51
2018-11-22T13:00:35.301Z,11.52
2018-11-22T13:01:35.279Z,11.54
2018-11-22T13:02:35.269Z,11.47
2018-11-22T13:03:35.261Z,11.44
2018-11-22T13:04:35.249Z,11.52
2018-11-22T13:05:35.231Z,11.60
2018-11-22T13:06:35.221Z,11.65
2018-11-22T13:07:35.200Z,11.79
2018-11-22T13:08:35.203Z,11.85
2018-11-22T13:09:35.203Z,11.80
2018-11-22T13:10:35.188Z,12.04